Time;durP1;ratioP1;P1;durP2;ratioP2;P2;SDS_P1;SDS_P2;PMS_P1;PMS_P2;Temp;Humidity;BMP_temperature;BMP_pressure;BME280_temperature;BME280_humidity;BME280_pressure;Samples;Min_cycle;Max_cycle;Signal;HPM_P1;HPM_P2
2022/10/25 14:44:24;;;;;;;0.77;0.70;;;20.00;99.90;;;;;;5133723;27;20549;-72
2022/10/25 14:46:53;;;;;;;0.70;0.70;;;20.00;99.90;;;;;;5130051;28;20440;-72
2022/10/25 14:49:20;;;;;;;0.80;0.80;;;20.10;99.90;;;;;;5130417;28;20437;-71
2022/10/25 14:51:49;;;;;;;0.60;0.60;;;20.20;99.90;;;;;;5129669;28;20439;-72
2022/10/25 14:54:25;;;;;;;0.97;0.97;;;20.20;99.90;;;;;;5149976;27;20466;-71
2022/10/25 14:56:55;;;;;;;0.87;0.70;;;20.30;99.90;;;;;;5150883;27;20527;-71
2022/10/25 14:59:26;;;;;;;0.80;0.80;;;20.30;99.90;;;;;;5150607;27;20461;-71
2022/10/25 15:01:56;;;;;;;0.67;0.67;;;20.30;99.90;;;;;;5150385;27;20450;-71
2022/10/25 15:04:29;;;;;;;1.43;0.60;;;20.40;99.90;;;;;;5109160;28;20869;-74
2022/10/25 15:06:56;;;;;;;0.50;0.50;;;20.50;99.90;;;;;;5109494;28;20445;-73
2022/10/25 15:09:23;;;;;;;0.70;0.70;;;20.50;99.90;;;;;;5109843;28;20785;-72
2022/10/25 15:12:15;;;;;;;0.90;0.90;;;20.50;99.90;;;;;;5109264;28;20448;-73
2022/10/25 15:14:46;;;;;;;0.70;0.70;;;20.50;99.90;;;;;;5108322;28;20473;-73
2022/10/25 15:17:19;;;;;;;0.70;0.70;;;20.50;99.90;;;;;;5109352;28;20536;-73
2022/10/25 15:20:04;;;;;;;0.60;0.60;;;20.50;99.90;;;;;;5109122;28;20452;-72
2022/10/25 15:22:32;;;;;;;0.60;0.60;;;20.50;99.90;;;;;;5118498;27;20970;-67
2022/10/25 15:24:59;;;;;;;0.60;0.60;;;20.60;99.90;;;;;;5150209;27;20993;-69
2022/10/25 15:27:34;;;;;;;0.90;0.90;;;20.60;99.90;;;;;;5149856;27;20531;-71
2022/10/25 15:30:03;;;;;;;0.80;0.80;;;20.60;99.90;;;;;;5141294;27;20522;-69
2022/10/25 15:32:30;;;;;;;0.70;0.70;;;20.60;99.90;;;;;;5129201;27;20502;-71
2022/10/25 15:35:00;;;;;;;0.97;0.97;;;20.60;99.90;;;;;;5129218;27;20540;-73
2022/10/25 15:37:28;;;;;;;0.87;0.87;;;20.60;99.90;;;;;;5129237;27;20436;-74
2022/10/25 15:39:56;;;;;;;1.17;1.07;;;20.60;99.90;;;;;;5136087;27;20446;-69
2022/10/25 15:42:24;;;;;;;1.30;1.20;;;20.60;99.90;;;;;;5149243;27;20482;-69
2022/10/25 15:44:51;;;;;;;1.57;1.57;;;20.70;99.90;;;;;;5149558;27;20500;-70
2022/10/25 15:47:27;;;;;;;1.27;1.17;;;20.70;99.90;;;;;;5150107;27;20914;-73
2022/10/25 15:49:55;;;;;;;1.30;1.30;;;20.70;99.90;;;;;;5141982;27;20444;-74
2022/10/25 15:52:22;;;;;;;2.47;2.27;;;20.70;99.90;;;;;;5128547;27;20524;-73
2022/10/25 15:54:49;;;;;;;3.73;1.40;;;20.70;99.90;;;;;;5119362;27;20457;-72
2022/10/25 15:57:16;;;;;;;1.17;1.17;;;20.70;99.90;;;;;;5115071;28;20901;-72
2022/10/25 15:59:43;;;;;;;0.87;0.87;;;20.70;99.90;;;;;;5114881;27;20448;-71
2022/10/25 16:02:17;;;;;;;1.30;1.30;;;20.70;99.90;;;;;;5114832;28;20449;-73
2022/10/25 16:07:30;;;;;;;0.73;0.73;;;20.70;99.90;;;;;;5130639;27;20616;-70
2022/10/25 16:09:56;;;;;;;1.03;1.00;;;20.70;99.90;;;;;;5130184;27;20464;-71
2022/10/25 16:12:30;;;;;;;2.47;1.37;;;20.70;99.90;;;;;;5130073;28;20445;-72
2022/10/25 16:14:57;;;;;;;0.90;0.90;;;20.70;99.90;;;;;;5130004;28;20492;-72
2022/10/25 16:17:23;;;;;;;1.87;1.00;;;20.70;99.90;;;;;;5129903;27;20552;-76
2022/10/25 16:19:50;;;;;;;9.80;1.30;;;20.80;99.90;;;;;;5123685;27;20478;-72
2022/10/25 16:22:17;;;;;;;2.40;1.43;;;20.80;99.90;;;;;;5109159;28;20528;-74
2022/10/25 16:24:45;;;;;;;1.73;1.20;;;20.80;99.90;;;;;;5109817;28;20453;-75
2022/10/25 16:27:13;;;;;;;2.10;1.37;;;20.80;99.90;;;;;;5109431;28;20847;-73
2022/10/25 16:29:40;;;;;;;4.77;1.07;;;20.80;99.90;;;;;;5127495;28;20447;-74
2022/10/25 16:32:07;;;;;;;3.67;1.10;;;20.80;99.90;;;;;;5130439;27;20451;-74
2022/10/25 16:34:34;;;;;;;2.13;1.17;;;20.70;99.90;;;;;;5130003;27;20548;-69
2022/10/25 16:37:00;;;;;;;3.27;1.57;;;20.70;99.90;;;;;;5119857;27;21144;-69
2022/10/25 16:39:27;;;;;;;4.60;1.60;;;20.70;99.90;;;;;;5109223;28;20537;-74
2022/10/25 16:41:57;;;;;;;6.00;1.30;;;20.70;99.90;;;;;;5109393;28;20469;-74
2022/10/25 16:44:24;;;;;;;3.40;1.93;;;20.70;99.90;;;;;;5109442;28;20514;-72
2022/10/25 16:46:50;;;;;;;3.27;1.50;;;20.70;99.90;;;;;;5117163;28;20480;-74
2022/10/25 16:49:17;;;;;;;4.67;1.90;;;20.70;99.90;;;;;;5129642;27;21005;-72
2022/10/25 16:51:44;;;;;;;2.60;1.40;;;20.70;99.90;;;;;;5129789;27;20529;-73
2022/10/25 16:54:11;;;;;;;3.63;1.50;;;20.80;99.90;;;;;;5129875;27;20492;-74
2022/10/25 16:56:38;;;;;;;3.23;1.20;;;20.70;99.90;;;;;;5123868;27;20926;-73
2022/10/25 16:59:07;;;;;;;3.63;1.60;;;20.70;99.90;;;;;;5109300;28;20445;-75
2022/10/25 17:01:35;;;;;;;1.63;1.20;;;20.70;99.90;;;;;;5108869;28;20441;-76
2022/10/25 17:04:03;;;;;;;8.97;1.37;;;20.80;99.90;;;;;;5108776;28;20462;-75
2022/10/25 17:06:30;;;;;;;2.20;1.00;;;20.80;99.90;;;;;;5112494;28;20595;-75
2022/10/25 17:08:57;;;;;;;2.27;1.00;;;20.70;99.90;;;;;;5129103;27;20441;-74
2022/10/25 17:11:24;;;;;;;1.83;1.50;;;20.80;99.90;;;;;;5129137;27;20593;-76
2022/10/25 17:13:51;;;;;;;5.33;1.53;;;20.80;99.90;;;;;;5129338;27;20544;-76
2022/10/25 17:16:19;;;;;;;1.77;0.87;;;20.80;99.90;;;;;;5126423;27;20531;-75
2022/10/25 17:18:46;;;;;;;2.67;1.03;;;20.80;99.90;;;;;;5095297;28;20500;-75
2022/10/25 17:21:15;;;;;;;2.60;1.23;;;20.80;99.90;;;;;;5094655;28;20450;-71
2022/10/25 17:23:42;;;;;;;3.47;1.50;;;20.80;99.90;;;;;;5095112;28;21054;-70
2022/10/25 17:26:10;;;;;;;1.50;1.40;;;20.80;99.90;;;;;;5095435;28;20847;-74
2022/10/25 17:28:38;;;;;;;1.73;1.53;;;20.80;99.90;;;;;;5115093;28;20484;-70
2022/10/25 17:31:08;;;;;;;2.30;1.20;;;20.80;99.90;;;;;;5114707;28;20438;-69
2022/10/25 17:33:37;;;;;;;3.73;0.97;;;20.80;99.90;;;;;;5114918;28;20473;-70
2022/10/25 17:36:09;;;;;;;2.33;1.13;;;20.80;99.90;;;;;;5114341;28;20438;-72
2022/10/25 17:38:36;;;;;;;2.00;1.60;;;20.80;99.90;;;;;;5093341;28;20453;-74
2022/10/25 17:41:04;;;;;;;1.20;1.20;;;20.80;99.90;;;;;;5092822;28;20858;-73
2022/10/25 17:43:31;;;;;;;2.40;1.27;;;20.80;99.90;;;;;;5094225;28;20462;-77
2022/10/25 17:46:02;;;;;;;2.30;1.37;;;20.80;99.90;;;;;;5102586;28;20510;-77
2022/10/25 17:48:29;;;;;;;3.60;1.23;;;20.80;99.90;;;;;;5105624;28;20445;-73
2022/10/25 17:51:02;;;;;;;2.70;1.63;;;20.80;99.90;;;;;;5113773;28;20817;-74
2022/10/25 17:53:29;;;;;;;1.83;1.20;;;20.80;99.90;;;;;;5114410;28;20477;-73
2022/10/25 17:55:56;;;;;;;4.13;1.20;;;20.80;99.90;;;;;;5101359;28;20529;-69
2022/10/25 17:58:23;;;;;;;1.30;1.20;;;20.80;99.90;;;;;;5093978;28;20439;-75
2022/10/25 18:00:53;;;;;;;1.30;1.03;;;20.80;99.90;;;;;;5094211;28;20474;-74
2022/10/25 18:03:19;;;;;;;7.50;2.70;;;20.80;99.90;;;;;;5094464;28;20446;-74
2022/10/25 18:05:47;;;;;;;2.40;1.40;;;20.80;99.90;;;;;;5104811;28;20536;-74
2022/10/25 18:08:15;;;;;;;1.90;1.40;;;20.80;99.90;;;;;;5114444;28;20434;-74
2022/10/25 18:10:42;;;;;;;1.33;1.20;;;20.80;99.90;;;;;;5113913;28;20449;-73
2022/10/25 18:13:09;;;;;;;1.67;1.30;;;20.90;99.90;;;;;;5113807;28;20451;-74
2022/10/25 18:15:37;;;;;;;1.00;0.97;;;20.80;99.90;;;;;;5105057;28;20636;-74
2022/10/25 18:18:04;;;;;;;1.57;0.97;;;20.80;99.90;;;;;;5093723;28;20533;-74
2022/10/25 18:20:31;;;;;;;1.87;1.33;;;20.80;99.90;;;;;;5093449;28;20537;-71
2022/10/25 18:22:58;;;;;;;3.43;2.07;;;20.80;99.90;;;;;;5093505;28;20477;-73
2022/10/25 18:25:26;;;;;;;2.30;1.40;;;20.80;99.90;;;;;;5093685;28;20549;-74
2022/10/25 18:27:53;;;;;;;1.50;1.10;;;20.80;99.90;;;;;;5093465;28;20501;-74
2022/10/25 18:30:23;;;;;;;5.40;1.40;;;20.80;99.90;;;;;;5092226;28;20466;-73
2022/10/25 18:32:50;;;;;;;2.53;1.13;;;20.80;99.90;;;;;;5093522;28;20813;-74
2022/10/25 18:35:17;;;;;;;2.43;1.23;;;20.80;99.90;;;;;;5093311;28;20493;-70
2022/10/25 18:37:43;;;;;;;1.60;1.10;;;20.80;99.90;;;;;;5093067;28;20521;-69
2022/10/25 18:40:13;;;;;;;2.23;2.03;;;20.80;99.90;;;;;;5092674;28;20482;-70
2022/10/25 18:42:42;;;;;;;0.97;0.97;;;20.80;99.90;;;;;;5093096;28;20460;-71
2022/10/25 18:45:09;;;;;;;1.73;1.07;;;20.80;99.90;;;;;;5111324;28;21066;-71
2022/10/25 18:47:36;;;;;;;1.70;1.60;;;20.80;99.90;;;;;;5113385;28;20477;-73
2022/10/25 18:50:03;;;;;;;0.90;0.90;;;20.80;99.90;;;;;;5113296;28;20803;-72
2022/10/25 18:52:30;;;;;;;1.70;1.27;;;20.80;99.90;;;;;;5103029;28;20446;-72
2022/10/25 18:54:57;;;;;;;1.30;1.30;;;20.80;99.90;;;;;;5092787;28;20554;-71
2022/10/25 18:57:24;;;;;;;2.43;1.13;;;20.80;99.90;;;;;;5092655;28;20451;-72
2022/10/25 18:59:52;;;;;;;1.03;0.90;;;20.80;99.90;;;;;;5092776;28;20449;-71
2022/10/25 19:02:19;;;;;;;0.90;0.90;;;20.80;99.90;;;;;;5100811;28;20469;-71
2022/10/25 19:04:46;;;;;;;1.10;1.07;;;20.80;99.90;;;;;;5113401;28;20902;-71
2022/10/25 19:07:12;;;;;;;1.70;1.50;;;20.80;99.90;;;;;;5113315;28;20477;-71
2022/10/25 19:09:39;;;;;;;2.10;1.40;;;20.80;99.90;;;;;;5113648;27;21016;-72
2022/10/25 19:12:06;;;;;;;3.27;1.40;;;20.80;99.90;;;;;;5106740;28;20453;-74
2022/10/25 19:14:33;;;;;;;3.77;1.30;;;20.80;99.90;;;;;;5092918;28;21014;-73
2022/10/25 19:17:01;;;;;;;1.13;1.13;;;20.80;99.90;;;;;;5092885;28;20538;-71
2022/10/25 19:19:28;;;;;;;1.17;1.17;;;20.80;99.90;;;;;;5092941;28;20529;-72
2022/10/25 19:21:57;;;;;;;1.00;1.00;;;20.80;99.90;;;;;;5099541;28;20441;-74
2022/10/25 19:24:23;;;;;;;1.30;1.17;;;20.80;99.90;;;;;;5112716;28;20470;-73
2022/10/25 19:26:50;;;;;;;2.10;1.17;;;20.80;99.90;;;;;;5113184;28;20573;-74
2022/10/25 19:29:18;;;;;;;2.00;1.80;;;20.80;99.90;;;;;;5113636;28;20856;-71
2022/10/25 19:31:45;;;;;;;1.40;1.30;;;20.80;99.90;;;;;;5112689;28;20446;-73
2022/10/25 19:34:13;;;;;;;1.13;1.13;;;20.80;99.90;;;;;;5112968;28;21046;-73
2022/10/25 19:36:40;;;;;;;1.20;1.20;;;20.80;99.90;;;;;;5112960;28;20433;-73
2022/10/25 19:39:07;;;;;;;5.50;1.30;;;20.80;99.90;;;;;;5113048;28;20445;-71
2022/10/25 19:41:34;;;;;;;1.10;0.90;;;20.80;99.90;;;;;;5108109;28;20526;-71
2022/10/25 19:44:01;;;;;;;1.60;1.50;;;20.80;99.90;;;;;;5092207;28;20498;-71
2022/10/25 19:46:27;;;;;;;1.37;1.03;;;20.80;99.90;;;;;;5092117;28;20525;-72
2022/10/25 19:48:55;;;;;;;1.57;1.47;;;20.80;99.90;;;;;;5092292;28;20527;-73
2022/10/25 19:51:23;;;;;;;1.30;1.20;;;20.80;99.90;;;;;;5093251;28;20458;-74
2022/10/25 19:53:50;;;;;;;1.17;1.10;;;20.80;99.90;;;;;;5092196;28;20501;-70
2022/10/25 19:56:19;;;;;;;1.33;1.23;;;20.80;99.90;;;;;;5092354;28;20533;-74
2022/10/25 19:58:46;;;;;;;3.67;2.03;;;20.80;99.90;;;;;;5092286;28;20533;-73
2022/10/25 20:01:16;;;;;;;1.53;1.43;;;20.80;99.90;;;;;;5106327;28;20521;-74
2022/10/25 20:03:44;;;;;;;1.70;1.60;;;20.80;99.90;;;;;;5112518;28;20466;-75
2022/10/25 20:06:14;;;;;;;2.27;1.27;;;20.80;99.90;;;;;;5112254;28;20456;-73
2022/10/25 20:08:43;;;;;;;1.87;1.70;;;20.80;99.90;;;;;;5098624;28;20434;-70
2022/10/25 20:11:12;;;;;;;3.00;1.63;;;20.80;99.90;;;;;;5091612;28;20442;-71
2022/10/25 20:13:39;;;;;;;2.40;1.20;;;20.80;99.90;;;;;;5091910;28;20454;-72
2022/10/25 20:16:08;;;;;;;1.83;1.67;;;20.80;99.90;;;;;;5091755;28;20448;-73
2022/10/25 20:18:37;;;;;;;2.10;1.50;;;20.80;99.90;;;;;;5103668;28;20529;-70
2022/10/25 20:21:07;;;;;;;1.57;1.47;;;20.80;99.90;;;;;;5111953;28;20435;-74
2022/10/25 20:23:35;;;;;;;3.23;0.93;;;20.80;99.90;;;;;;5112227;28;20464;-71
2022/10/25 20:26:12;;;;;;;1.77;1.43;;;20.80;99.90;;;;;;5112241;28;20444;-73
2022/10/25 20:28:38;;;;;;;3.27;1.23;;;20.80;99.90;;;;;;5099700;28;20474;-71
2022/10/25 20:31:06;;;;;;;1.43;1.33;;;20.80;99.90;;;;;;5091769;28;20529;-69
2022/10/25 20:33:33;;;;;;;1.40;1.30;;;20.80;99.90;;;;;;5091771;28;20458;-67
2022/10/25 20:36:02;;;;;;;1.83;1.73;;;20.90;99.90;;;;;;5095800;28;20448;-69
2022/10/25 20:38:30;;;;;;;1.60;1.23;;;20.90;99.90;;;;;;5112243;28;20788;-71
2022/10/25 20:41:01;;;;;;;1.43;1.33;;;20.90;99.90;;;;;;5111577;28;20540;-68
2022/10/25 20:43:30;;;;;;;2.00;1.60;;;20.90;99.90;;;;;;5112039;28;20552;-68
2022/10/25 20:45:56;;;;;;;3.20;1.80;;;20.90;99.90;;;;;;5108312;28;20540;-69
2022/10/25 20:48:23;;;;;;;2.00;1.80;;;20.90;99.90;;;;;;5091616;28;20490;-68
2022/10/25 20:50:52;;;;;;;1.60;1.50;;;20.90;99.90;;;;;;5091207;28;20449;-69
2022/10/25 20:53:19;;;;;;;1.70;1.60;;;20.90;99.90;;;;;;5093658;28;20446;-70
2022/10/25 20:55:47;;;;;;;1.87;1.77;;;20.90;99.90;;;;;;5097000;28;20453;-70
2022/10/25 20:58:14;;;;;;;1.47;1.37;;;21.00;99.90;;;;;;5115650;28;20449;-66
2022/10/25 21:00:42;;;;;;;1.70;1.40;;;20.90;99.90;;;;;;5115410;28;20489;-69
2022/10/25 21:03:09;;;;;;;1.80;1.70;;;20.90;99.90;;;;;;5115628;28;20528;-69
2022/10/25 21:05:41;;;;;;;1.33;1.30;;;21.00;99.90;;;;;;5101170;28;20455;-69
2022/10/25 21:08:09;;;;;;;2.07;1.40;;;21.00;99.90;;;;;;5095894;28;20497;-66
2022/10/25 21:10:36;;;;;;;1.77;1.67;;;21.00;99.90;;;;;;5095620;28;20438;-70
2022/10/25 21:13:03;;;;;;;1.17;1.17;;;21.00;99.90;;;;;;5095640;28;20456;-74
2022/10/25 21:15:30;;;;;;;2.13;1.80;;;20.90;99.90;;;;;;5095558;28;20549;-67
2022/10/25 21:17:58;;;;;;;1.30;1.20;;;20.90;99.90;;;;;;5095496;28;20513;-67
2022/10/25 21:20:25;;;;;;;1.50;1.40;;;21.00;99.90;;;;;;5095295;28;20533;-67
2022/10/25 21:22:52;;;;;;;1.60;1.50;;;21.00;99.90;;;;;;5095034;28;20442;-67
2022/10/25 21:25:19;;;;;;;1.40;1.30;;;21.00;99.90;;;;;;5106611;28;20891;-67
2022/10/25 21:27:46;;;;;;;1.57;1.30;;;21.00;99.90;;;;;;5115547;28;20524;-67
2022/10/25 21:30:13;;;;;;;1.40;1.30;;;21.00;99.90;;;;;;5115362;28;20527;-67
2022/10/25 21:32:39;;;;;;;1.50;1.40;;;21.00;99.90;;;;;;5115501;28;20438;-66
2022/10/25 21:35:08;;;;;;;1.53;1.13;;;21.00;99.90;;;;;;5105117;28;20547;-66
2022/10/25 21:37:35;;;;;;;1.40;1.30;;;21.00;99.90;;;;;;5094597;28;20523;-66
2022/10/25 21:40:02;;;;;;;3.27;1.70;;;21.00;99.90;;;;;;5094733;28;20514;-70
2022/10/25 21:42:30;;;;;;;1.50;1.40;;;21.00;99.90;;;;;;5094783;28;20541;-69
2022/10/25 21:44:57;;;;;;;1.47;1.47;;;21.00;99.90;;;;;;5102530;28;20695;-69
2022/10/25 21:47:24;;;;;;;1.67;1.63;;;21.00;99.90;;;;;;5115791;28;20564;-70
2022/10/25 21:49:51;;;;;;;2.60;2.40;;;21.00;99.90;;;;;;5115267;27;20879;-69
2022/10/25 21:52:19;;;;;;;1.50;1.40;;;21.00;99.90;;;;;;5114661;28;20517;-68
2022/10/25 21:54:46;;;;;;;1.37;1.27;;;21.00;99.90;;;;;;5108725;28;20466;-67
2022/10/25 21:57:13;;;;;;;1.77;1.67;;;21.00;99.90;;;;;;5094264;28;20533;-66
2022/10/25 21:59:39;;;;;;;1.67;1.53;;;21.00;99.90;;;;;;5094361;28;20510;-66
2022/10/25 22:02:06;;;;;;;2.00;1.20;;;21.00;99.90;;;;;;5094114;28;20537;-66
2022/10/25 22:04:33;;;;;;;1.30;1.20;;;21.00;99.90;;;;;;5098191;28;20517;-66
2022/10/25 22:07:00;;;;;;;1.63;1.50;;;21.00;99.90;;;;;;5114502;28;20544;-69
2022/10/25 22:09:28;;;;;;;1.80;1.70;;;21.00;99.90;;;;;;5114690;28;20442;-69
2022/10/25 22:11:55;;;;;;;3.20;1.33;;;21.00;99.90;;;;;;5114487;28;20532;-67
2022/10/25 22:14:22;;;;;;;1.93;1.37;;;21.00;99.90;;;;;;5097667;28;20556;-67
2022/10/25 22:16:48;;;;;;;1.77;1.17;;;21.00;99.90;;;;;;5093711;28;20525;-68
2022/10/25 22:19:17;;;;;;;1.83;1.53;;;21.00;99.90;;;;;;5093482;28;20517;-68
2022/10/25 22:21:45;;;;;;;1.50;1.40;;;21.00;99.90;;;;;;5093263;28;20453;-68
2022/10/25 22:24:12;;;;;;;1.60;1.50;;;21.00;99.90;;;;;;5107881;28;20462;-69
2022/10/25 22:26:43;;;;;;;1.73;1.60;;;21.00;99.90;;;;;;5113716;27;20445;-68
2022/10/25 22:29:11;;;;;;;1.03;1.03;;;21.00;99.90;;;;;;5113718;28;20481;-67
2022/10/25 22:31:38;;;;;;;1.73;1.63;;;21.00;99.90;;;;;;5113576;28;20437;-64
2022/10/25 22:34:07;;;;;;;1.60;1.50;;;21.00;99.90;;;;;;5099628;28;20473;-65
2022/10/25 22:36:36;;;;;;;0.90;0.90;;;21.00;99.90;;;;;;5093301;28;20453;-64
2022/10/25 22:39:04;;;;;;;1.17;1.17;;;21.00;99.90;;;;;;5093250;28;20439;-65
2022/10/25 22:41:31;;;;;;;1.10;1.10;;;21.00;99.90;;;;;;5092906;28;20452;-65
2022/10/25 22:44:00;;;;;;;1.00;1.00;;;21.10;99.90;;;;;;5105035;28;20471;-65
2022/10/25 22:46:28;;;;;;;1.40;1.40;;;21.10;99.90;;;;;;5113480;27;20442;-64
2022/10/25 22:48:56;;;;;;;1.63;1.53;;;21.00;99.90;;;;;;5113231;28;20483;-66
2022/10/25 22:51:25;;;;;;;1.70;1.33;;;21.00;99.90;;;;;;5113011;28;20445;-66
2022/10/25 22:53:52;;;;;;;1.30;1.30;;;21.00;99.90;;;;;;5101717;28;21014;-65
2022/10/25 22:56:21;;;;;;;1.00;1.00;;;21.00;99.90;;;;;;5092748;28;20550;-65
2022/10/25 22:58:49;;;;;;;1.73;1.50;;;21.00;99.90;;;;;;5092786;28;20954;-65
2022/10/25 23:01:19;;;;;;;1.13;1.03;;;21.00;99.90;;;;;;5092537;28;20452;-65
2022/10/25 23:03:48;;;;;;;1.20;1.20;;;21.00;99.90;;;;;;5102315;28;20461;-67
2022/10/25 23:06:19;;;;;;;1.13;1.13;;;21.00;99.90;;;;;;5112895;28;20760;-65
2022/10/25 23:08:46;;;;;;;1.03;1.03;;;21.00;99.90;;;;;;5112988;27;20488;-66
2022/10/25 23:11:14;;;;;;;1.63;1.53;;;21.00;99.90;;;;;;5112709;28;20814;-66
2022/10/25 23:13:41;;;;;;;1.00;0.97;;;21.00;99.90;;;;;;5112531;28;20475;-66
2022/10/25 23:16:09;;;;;;;1.87;1.77;;;21.00;99.90;;;;;;5112410;28;20528;-65
2022/10/25 23:18:38;;;;;;;2.30;1.87;;;21.00;99.90;;;;;;5112770;28;20443;-66
2022/10/25 23:21:08;;;;;;;1.30;1.20;;;21.00;99.90;;;;;;5111220;28;20478;-65
2022/10/25 23:23:37;;;;;;;1.07;0.97;;;21.00;99.90;;;;;;5092209;28;20466;-66
2022/10/25 23:26:05;;;;;;;3.93;1.20;;;21.00;99.90;;;;;;5092250;28;20442;-65
2022/10/25 23:28:32;;;;;;;1.40;1.30;;;21.00;99.90;;;;;;5092181;28;20524;-64
2022/10/25 23:31:04;;;;;;;1.50;1.40;;;21.00;99.90;;;;;;5092001;28;20448;-66
2022/10/25 23:33:31;;;;;;;1.73;1.63;;;21.00;99.90;;;;;;5092320;28;20462;-70
2022/10/25 23:36:02;;;;;;;1.10;1.10;;;21.10;99.90;;;;;;5092174;28;20500;-66
2022/10/25 23:38:29;;;;;;;1.40;1.30;;;21.00;99.90;;;;;;5092206;28;20443;-64
2022/10/25 23:40:56;;;;;;;1.27;1.20;;;21.10;99.90;;;;;;5091893;28;20439;-64
2022/10/25 23:43:23;;;;;;;2.17;1.47;;;21.00;99.90;;;;;;5091627;28;20474;-65
2022/10/25 23:45:50;;;;;;;0.90;0.87;;;21.00;99.90;;;;;;5092057;28;20453;-64
2022/10/25 23:48:17;;;;;;;1.20;1.10;;;21.00;99.90;;;;;;5091936;28;20887;-65
2022/10/25 23:50:44;;;;;;;1.10;1.10;;;21.00;99.90;;;;;;5091890;28;20528;-66
2022/10/25 23:53:12;;;;;;;1.80;1.53;;;21.00;99.90;;;;;;5091391;28;20442;-67
2022/10/25 23:55:39;;;;;;;1.43;1.37;;;21.10;99.90;;;;;;5091964;28;20442;-65
2022/10/25 23:58:06;;;;;;;1.17;1.10;;;21.10;99.90;;;;;;5091965;28;20876;-66
